DAL8635 KMSP-KLAX
Flight info
| Callsign | DAL8635 |
|---|---|
| Flight time | 3h 22m |
| Altitude | 40000 |
| Route | SCHEP1 RXANN TEYOU LLUKY BFF KD63U KU51Q PROMT Q88 HAKMN ANJLL4 |
| Aircraft | A359/H-SDE2E3GHIJ3J4J5LM1ORWXY/LB1D1 |
Departure
| Time | 2026-04-24 20:35 |
|---|---|
| Airport | Minneapolis–Saint Paul International Airport / Wold–Chamberlain Field (KMSP) |
Arrival
| Time | 2026-04-24 23:57 |
|---|---|
| Airport | Los Angeles International Airport (KLAX) |
| Time | Latitude | Longitude | Altitude | Speed | Heading |
|---|---|---|---|---|---|
| 2026-04-24 20:09 | 44.88363 | -93.21700 | 832 ft | 0 kts | 97° |
| 2026-04-24 20:23 | 44.88365 | -93.21713 | 825 ft | 4 kts | 100° |
| 2026-04-24 20:23 | 44.88372 | -93.21748 | 824 ft | 4 kts | 118° |
| 2026-04-24 20:23 | 44.88388 | -93.21777 | 824 ft | 4 kts | 146° |
| 2026-04-24 20:24 | 44.88403 | -93.21788 | 830 ft | 4 kts | 172° |
| 2026-04-24 20:24 | 44.88426 | -93.21782 | 828 ft | 0 kts | 225° |
| 2026-04-24 20:24 | 44.88426 | -93.21781 | 828 ft | 0 kts | 225° |
| 2026-04-24 20:25 | 44.88426 | -93.21780 | 828 ft | 0 kts | 225° |
| 2026-04-24 20:29 | 44.88416 | -93.21795 | 827 ft | 4 kts | 227° |
| 2026-04-24 20:29 | 44.88391 | -93.21833 | 832 ft | 7 kts | 227° |
| 2026-04-24 20:29 | 44.88350 | -93.21885 | 825 ft | 9 kts | 222° |
| 2026-04-24 20:30 | 44.88291 | -93.21934 | 826 ft | 10 kts | 183° |
| 2026-04-24 20:30 | 44.88241 | -93.21875 | 829 ft | 11 kts | 123° |
| 2026-04-24 20:30 | 44.88195 | -93.21773 | 826 ft | 14 kts | 121° |
| 2026-04-24 20:30 | 44.88139 | -93.21643 | 827 ft | 17 kts | 121° |
| 2026-04-24 20:31 | 44.88073 | -93.21490 | 823 ft | 20 kts | 121° |
| 2026-04-24 20:31 | 44.87997 | -93.21314 | 823 ft | 22 kts | 121° |
| 2026-04-24 20:31 | 44.87942 | -93.21188 | 824 ft | 23 kts | 121° |
| 2026-04-24 20:31 | 44.87825 | -93.20914 | 829 ft | 25 kts | 123° |
| 2026-04-24 20:32 | 44.87733 | -93.20705 | 829 ft | 21 kts | 121° |
| 2026-04-24 20:32 | 44.87679 | -93.20584 | 825 ft | 22 kts | 122° |
| 2026-04-24 20:32 | 44.87596 | -93.20385 | 824 ft | 24 kts | 120° |
| 2026-04-24 20:32 | 44.87515 | -93.20203 | 824 ft | 17 kts | 118° |
| 2026-04-24 20:33 | 44.87475 | -93.20103 | 829 ft | 6 kts | 122° |
| 2026-04-24 20:33 | 44.87441 | -93.20070 | 831 ft | 6 kts | 167° |
| 2026-04-24 20:33 | 44.87407 | -93.20087 | 829 ft | 6 kts | 213° |
| 2026-04-24 20:33 | 44.87371 | -93.20130 | 826 ft | 6 kts | 240° |
| 2026-04-24 20:34 | 44.87383 | -93.20191 | 830 ft | 8 kts | 297° |
| 2026-04-24 20:34 | 44.87475 | -93.20400 | 825 ft | 53 kts | 301° |
| 2026-04-24 20:34 | 44.87789 | -93.21128 | 825 ft | 118 kts | 301° |
| 2026-04-24 20:34 | 44.88327 | -93.22303 | 958 ft | 159 kts | 309° |
| 2026-04-24 20:35 | 44.88983 | -93.23465 | 1884 ft | 145 kts | 309° |
| 2026-04-24 20:35 | 44.89569 | -93.24730 | 2265 ft | 170 kts | 301° |
| 2026-04-24 20:35 | 44.90130 | -93.26371 | 2486 ft | 202 kts | 293° |
| 2026-04-24 20:35 | 44.90590 | -93.28413 | 2754 ft | 234 kts | 287° |
| 2026-04-24 20:36 | 44.91333 | -93.30539 | 3292 ft | 247 kts | 304° |
| 2026-04-24 20:36 | 44.92337 | -93.32522 | 4150 ft | 251 kts | 305° |
| 2026-04-24 20:36 | 44.93294 | -93.34614 | 4960 ft | 257 kts | 297° |
| 2026-04-24 20:36 | 44.94100 | -93.36857 | 5947 ft | 255 kts | 294° |
| 2026-04-24 20:37 | 44.94926 | -93.39081 | 6880 ft | 256 kts | 292° |
| 2026-04-24 20:37 | 44.95778 | -93.41291 | 7780 ft | 258 kts | 294° |
| 2026-04-24 20:37 | 44.96747 | -93.43474 | 8633 ft | 266 kts | 301° |
| 2026-04-24 20:37 | 44.97786 | -93.45650 | 9608 ft | 269 kts | 299° |
| 2026-04-24 20:38 | 44.98809 | -93.47888 | 10425 ft | 277 kts | 297° |
| 2026-04-24 20:38 | 44.99857 | -93.50295 | 10842 ft | 298 kts | 297° |
| 2026-04-24 20:38 | 45.00963 | -93.52899 | 11252 ft | 319 kts | 298° |
| 2026-04-24 20:38 | 45.02157 | -93.55650 | 11750 ft | 335 kts | 298° |
| 2026-04-24 20:39 | 45.03376 | -93.58491 | 12468 ft | 342 kts | 297° |
| 2026-04-24 20:39 | 45.04608 | -93.61413 | 13237 ft | 348 kts | 297° |
| 2026-04-24 20:39 | 45.05848 | -93.64385 | 13998 ft | 353 kts | 297° |
| 2026-04-24 20:39 | 45.07097 | -93.67398 | 14757 ft | 356 kts | 296° |
| 2026-04-24 20:40 | 45.08348 | -93.70432 | 15556 ft | 357 kts | 296° |
| 2026-04-24 20:40 | 45.09418 | -93.73587 | 16320 ft | 354 kts | 286° |
| 2026-04-24 20:40 | 45.09975 | -93.76949 | 17104 ft | 349 kts | 272° |
| 2026-04-24 20:40 | 45.09840 | -93.80335 | 17922 ft | 344 kts | 256° |
| 2026-04-24 20:41 | 45.08977 | -93.83471 | 18709 ft | 343 kts | 240° |
| 2026-04-24 20:41 | 45.07484 | -93.86074 | 19563 ft | 343 kts | 228° |
| 2026-04-24 20:41 | 45.05684 | -93.88327 | 20240 ft | 349 kts | 223° |
| 2026-04-24 20:41 | 45.03727 | -93.90402 | 20887 ft | 354 kts | 220° |
| 2026-04-24 20:42 | 45.01692 | -93.92400 | 21536 ft | 359 kts | 219° |
| 2026-04-24 20:42 | 44.99646 | -93.94375 | 22169 ft | 363 kts | 219° |
| 2026-04-24 20:42 | 44.97529 | -93.96437 | 22840 ft | 366 kts | 218° |
| 2026-04-24 20:42 | 44.95440 | -93.98444 | 23520 ft | 370 kts | 218° |
| 2026-04-24 20:43 | 44.93301 | -94.00502 | 24075 ft | 374 kts | 218° |
| 2026-04-24 20:43 | 44.91149 | -94.02609 | 24543 ft | 380 kts | 219° |
| 2026-04-24 20:43 | 44.88980 | -94.04774 | 25054 ft | 384 kts | 219° |
| 2026-04-24 20:43 | 44.86804 | -94.06973 | 25645 ft | 386 kts | 219° |
| 2026-04-24 20:44 | 44.84616 | -94.09202 | 26219 ft | 389 kts | 219° |
| 2026-04-24 20:44 | 44.82415 | -94.11451 | 26770 ft | 392 kts | 219° |
| 2026-04-24 20:44 | 44.80199 | -94.13715 | 27334 ft | 395 kts | 219° |
| 2026-04-24 20:44 | 44.77960 | -94.15999 | 27880 ft | 399 kts | 219° |
| 2026-04-24 20:45 | 44.75705 | -94.18297 | 28425 ft | 402 kts | 219° |
| 2026-04-24 20:45 | 44.73432 | -94.20608 | 29015 ft | 404 kts | 219° |
| 2026-04-24 20:45 | 44.71150 | -94.22925 | 29647 ft | 405 kts | 219° |
| 2026-04-24 20:45 | 44.68855 | -94.25252 | 30092 ft | 409 kts | 219° |
| 2026-04-24 20:46 | 44.66538 | -94.27600 | 30472 ft | 412 kts | 218° |
| 2026-04-24 20:46 | 44.64204 | -94.29962 | 30856 ft | 416 kts | 218° |
| 2026-04-24 20:46 | 44.61847 | -94.32345 | 31230 ft | 419 kts | 218° |
| 2026-04-24 20:46 | 44.59478 | -94.34737 | 31591 ft | 422 kts | 218° |
| 2026-04-24 20:47 | 44.57089 | -94.37147 | 31944 ft | 424 kts | 217° |
| 2026-04-24 20:47 | 44.54682 | -94.39573 | 32272 ft | 427 kts | 217° |
| 2026-04-24 20:47 | 44.52259 | -94.42012 | 32588 ft | 430 kts | 217° |
| 2026-04-24 20:47 | 44.49819 | -94.44466 | 32898 ft | 433 kts | 217° |
| 2026-04-24 20:48 | 44.47368 | -94.46929 | 33209 ft | 435 kts | 217° |
| 2026-04-24 20:48 | 44.44905 | -94.49400 | 33596 ft | 436 kts | 217° |
| 2026-04-24 20:48 | 44.42442 | -94.51869 | 34042 ft | 434 kts | 217° |
| 2026-04-24 20:48 | 44.39985 | -94.54330 | 34372 ft | 435 kts | 217° |
| 2026-04-24 20:49 | 44.37521 | -94.56796 | 34647 ft | 436 kts | 217° |
| 2026-04-24 20:49 | 44.35053 | -94.59262 | 34937 ft | 437 kts | 217° |
| 2026-04-24 20:49 | 44.32573 | -94.61738 | 35210 ft | 438 kts | 217° |
| 2026-04-24 20:49 | 44.30095 | -94.64211 | 35469 ft | 439 kts | 217° |
| 2026-04-24 20:50 | 44.27600 | -94.66697 | 35744 ft | 440 kts | 217° |
| 2026-04-24 20:50 | 44.25105 | -94.69180 | 36021 ft | 441 kts | 217° |
| 2026-04-24 20:50 | 44.22607 | -94.71664 | 36280 ft | 442 kts | 217° |
| 2026-04-24 20:50 | 44.20104 | -94.74149 | 36537 ft | 442 kts | 215° |
| 2026-04-24 20:51 | 44.17606 | -94.76565 | 36751 ft | 444 kts | 214° |
| 2026-04-24 20:51 | 44.15057 | -94.78991 | 36954 ft | 445 kts | 214° |
| 2026-04-24 20:51 | 44.12506 | -94.81428 | 37170 ft | 445 kts | 214° |
| 2026-04-24 20:51 | 44.09960 | -94.83888 | 37356 ft | 446 kts | 215° |
| 2026-04-24 20:52 | 44.07419 | -94.86368 | 37575 ft | 446 kts | 215° |
| 2026-04-24 20:52 | 44.04882 | -94.88862 | 37794 ft | 446 kts | 215° |
| 2026-04-24 20:52 | 44.02361 | -94.91382 | 37972 ft | 447 kts | 217° |
| 2026-04-24 20:52 | 44.00010 | -94.94205 | 38123 ft | 447 kts | 224° |
| 2026-04-24 20:53 | 43.97932 | -94.97414 | 38382 ft | 446 kts | 229° |
| 2026-04-24 20:53 | 43.96022 | -95.00796 | 38611 ft | 446 kts | 231° |
| 2026-04-24 20:53 | 43.94189 | -95.04271 | 38758 ft | 446 kts | 232° |
| 2026-04-24 20:53 | 43.92389 | -95.07790 | 38885 ft | 447 kts | 233° |
| 2026-04-24 20:54 | 43.90594 | -95.11321 | 38995 ft | 448 kts | 233° |
| 2026-04-24 20:54 | 43.88815 | -95.14868 | 39187 ft | 448 kts | 235° |
| 2026-04-24 20:54 | 43.87047 | -95.18430 | 39343 ft | 449 kts | 235° |
| 2026-04-24 20:54 | 43.85266 | -95.21978 | 39506 ft | 449 kts | 234° |
| 2026-04-24 20:55 | 43.83461 | -95.25515 | 39651 ft | 450 kts | 234° |
| 2026-04-24 20:55 | 43.81640 | -95.29034 | 39803 ft | 450 kts | 234° |
| 2026-04-24 20:55 | 43.79801 | -95.32552 | 39922 ft | 451 kts | 233° |
| 2026-04-24 20:55 | 43.77952 | -95.36069 | 39963 ft | 452 kts | 233° |
| 2026-04-24 20:56 | 43.74249 | -95.43087 | 39965 ft | 452 kts | 233° |
| 2026-04-24 20:56 | 43.70565 | -95.50056 | 39964 ft | 452 kts | 233° |
| 2026-04-24 20:57 | 43.66856 | -95.57063 | 39956 ft | 451 kts | 233° |
| 2026-04-24 20:57 | 43.63156 | -95.64039 | 39959 ft | 451 kts | 233° |
| 2026-04-24 20:58 | 43.59450 | -95.71011 | 39959 ft | 450 kts | 233° |
| 2026-04-24 20:58 | 43.55735 | -95.77980 | 39961 ft | 451 kts | 233° |
| 2026-04-24 20:59 | 43.52019 | -95.84937 | 39953 ft | 451 kts | 233° |
| 2026-04-24 20:59 | 43.48294 | -95.91893 | 39949 ft | 451 kts | 233° |
| 2026-04-24 21:00 | 43.44569 | -95.98833 | 39946 ft | 450 kts | 233° |
| 2026-04-24 21:00 | 43.40847 | -96.05752 | 39945 ft | 450 kts | 233° |
| 2026-04-24 21:01 | 43.37122 | -96.12658 | 39950 ft | 450 kts | 233° |
| 2026-04-24 21:01 | 43.33391 | -96.19561 | 39951 ft | 450 kts | 233° |
| 2026-04-24 21:02 | 43.29738 | -96.26544 | 39948 ft | 450 kts | 238° |
| 2026-04-24 21:02 | 43.26906 | -96.34213 | 39947 ft | 451 kts | 244° |
| 2026-04-24 21:03 | 43.24347 | -96.41999 | 39938 ft | 451 kts | 245° |
| 2026-04-24 21:03 | 43.21803 | -96.49859 | 39950 ft | 450 kts | 243° |
| 2026-04-24 21:04 | 43.19168 | -96.57645 | 39947 ft | 450 kts | 242° |
| 2026-04-24 21:04 | 43.16524 | -96.65422 | 39946 ft | 451 kts | 243° |
| 2026-04-24 21:05 | 43.13935 | -96.73251 | 39955 ft | 451 kts | 245° |
| 2026-04-24 21:05 | 43.11400 | -96.81092 | 39954 ft | 450 kts | 243° |
| 2026-04-24 21:06 | 43.08798 | -96.88890 | 39969 ft | 451 kts | 243° |
| 2026-04-24 21:06 | 43.06180 | -96.96675 | 39965 ft | 451 kts | 242° |
| 2026-04-24 21:07 | 43.03547 | -97.04455 | 39974 ft | 451 kts | 243° |
| 2026-04-24 21:07 | 43.00875 | -97.12192 | 39969 ft | 450 kts | 240° |
| 2026-04-24 21:08 | 42.98146 | -97.19896 | 39967 ft | 451 kts | 240° |
| 2026-04-24 21:08 | 42.95495 | -97.27591 | 39961 ft | 451 kts | 241° |
| 2026-04-24 21:09 | 42.92868 | -97.35350 | 39962 ft | 450 kts | 241° |
| 2026-04-24 21:09 | 42.90244 | -97.43112 | 39964 ft | 450 kts | 241° |
| 2026-04-24 21:10 | 42.87616 | -97.50853 | 39990 ft | 450 kts | 241° |
| 2026-04-24 21:10 | 42.84969 | -97.58594 | 39992 ft | 450 kts | 238° |
| 2026-04-24 21:11 | 42.82212 | -97.66226 | 39989 ft | 450 kts | 238° |
| 2026-04-24 21:11 | 42.79472 | -97.73906 | 39989 ft | 451 kts | 239° |
| 2026-04-24 21:12 | 42.77240 | -97.80321 | 39986 ft | 451 kts | 239° |
| 2026-04-24 21:12 | 42.74099 | -97.89309 | 39983 ft | 451 kts | 246° |
| 2026-04-24 21:13 | 42.71822 | -97.97183 | 39982 ft | 449 kts | 248° |
| 2026-04-24 21:13 | 42.69420 | -98.05009 | 39972 ft | 448 kts | 246° |
| 2026-04-24 21:14 | 42.66827 | -98.12696 | 39976 ft | 447 kts | 244° |
| 2026-04-24 21:14 | 42.64157 | -98.20328 | 39969 ft | 447 kts | 244° |
| 2026-04-24 21:15 | 42.61481 | -98.27939 | 39968 ft | 447 kts | 244° |
| 2026-04-24 21:15 | 42.58805 | -98.35555 | 39970 ft | 447 kts | 244° |
| 2026-04-24 21:16 | 42.56132 | -98.43160 | 39956 ft | 446 kts | 244° |
| 2026-04-24 21:16 | 42.53462 | -98.50738 | 39940 ft | 445 kts | 244° |
| 2026-04-24 21:17 | 42.50787 | -98.58312 | 39934 ft | 445 kts | 244° |
| 2026-04-24 21:17 | 42.48986 | -98.64837 | 39935 ft | 446 kts | 255° |
| 2026-04-24 21:18 | 42.47736 | -98.74535 | 39936 ft | 448 kts | 260° |
| 2026-04-24 21:18 | 42.46899 | -98.82915 | 39936 ft | 449 kts | 260° |
| 2026-04-24 21:19 | 42.46075 | -98.91247 | 39938 ft | 449 kts | 260° |
| 2026-04-24 21:19 | 42.45220 | -98.99625 | 39940 ft | 449 kts | 260° |
| 2026-04-24 21:20 | 42.43780 | -99.12211 | 39943 ft | 450 kts | 257° |
| 2026-04-24 21:21 | 42.42843 | -99.20560 | 39940 ft | 453 kts | 258° |
| 2026-04-24 21:21 | 42.41935 | -99.29000 | 39939 ft | 453 kts | 258° |
| 2026-04-24 21:22 | 42.41035 | -99.37446 | 39937 ft | 453 kts | 258° |
| 2026-04-24 21:22 | 42.40131 | -99.45879 | 39929 ft | 453 kts | 258° |
| 2026-04-24 21:23 | 42.39213 | -99.54349 | 39924 ft | 458 kts | 258° |
| 2026-04-24 21:23 | 42.38278 | -99.62900 | 39926 ft | 460 kts | 258° |
| 2026-04-24 21:24 | 42.37338 | -99.71442 | 39914 ft | 460 kts | 258° |
| 2026-04-24 21:24 | 42.36549 | -99.78563 | 39913 ft | 460 kts | 258° |
| 2026-04-24 21:25 | 42.35595 | -99.87113 | 39906 ft | 460 kts | 259° |
| 2026-04-24 21:25 | 42.34636 | -99.95659 | 39910 ft | 460 kts | 259° |
| 2026-04-24 21:26 | 42.33706 | -100.04204 | 39897 ft | 460 kts | 261° |
| 2026-04-24 21:26 | 42.32835 | -100.12771 | 39908 ft | 460 kts | 261° |
| 2026-04-24 21:27 | 42.31904 | -100.21316 | 39921 ft | 459 kts | 261° |
| 2026-04-24 21:27 | 42.30931 | -100.29795 | 39901 ft | 454 kts | 261° |
| 2026-04-24 21:28 | 42.29950 | -100.38205 | 39904 ft | 453 kts | 261° |
| 2026-04-24 21:28 | 42.28965 | -100.46610 | 39898 ft | 453 kts | 261° |
| 2026-04-24 21:29 | 42.27977 | -100.55004 | 39897 ft | 453 kts | 261° |
| 2026-04-24 21:29 | 42.26992 | -100.63324 | 39888 ft | 449 kts | 261° |
| 2026-04-24 21:30 | 42.26004 | -100.71616 | 39888 ft | 446 kts | 261° |
| 2026-04-24 21:30 | 42.25012 | -100.79878 | 39880 ft | 446 kts | 261° |
| 2026-04-24 21:31 | 42.24017 | -100.88128 | 39865 ft | 446 kts | 261° |
| 2026-04-24 21:31 | 42.23014 | -100.96382 | 39865 ft | 446 kts | 261° |
| 2026-04-24 21:32 | 42.22007 | -101.04626 | 39850 ft | 446 kts | 260° |
| 2026-04-24 21:32 | 42.20994 | -101.12868 | 39851 ft | 446 kts | 260° |
| 2026-04-24 21:33 | 42.19973 | -101.21118 | 39852 ft | 445 kts | 258° |
| 2026-04-24 21:33 | 42.18868 | -101.29328 | 39850 ft | 445 kts | 258° |
| 2026-04-24 21:34 | 42.17759 | -101.37519 | 39841 ft | 442 kts | 258° |
| 2026-04-24 21:34 | 42.16709 | -101.45652 | 39840 ft | 440 kts | 258° |
| 2026-04-24 21:35 | 42.15679 | -101.53783 | 39829 ft | 440 kts | 258° |
| 2026-04-24 21:35 | 42.14648 | -101.61905 | 39815 ft | 440 kts | 258° |
| 2026-04-24 21:36 | 42.13616 | -101.69973 | 39811 ft | 440 kts | 258° |
| 2026-04-24 21:36 | 42.12565 | -101.78123 | 39799 ft | 439 kts | 258° |
| 2026-04-24 21:37 | 42.11436 | -101.86191 | 39797 ft | 438 kts | 255° |
| 2026-04-24 21:37 | 42.10260 | -101.94261 | 39785 ft | 439 kts | 256° |
| 2026-04-24 21:38 | 42.09154 | -102.02343 | 39785 ft | 439 kts | 256° |
| 2026-04-24 21:38 | 42.08092 | -102.10382 | 39772 ft | 439 kts | 256° |
| 2026-04-24 21:39 | 42.07023 | -102.18484 | 39769 ft | 439 kts | 256° |
| 2026-04-24 21:39 | 42.05946 | -102.26572 | 39760 ft | 439 kts | 256° |
| 2026-04-24 21:40 | 42.04971 | -102.34685 | 39755 ft | 439 kts | 262° |
| 2026-04-24 21:40 | 42.04102 | -102.42808 | 39758 ft | 439 kts | 261° |
| 2026-04-24 21:41 | 42.03097 | -102.50928 | 39764 ft | 440 kts | 260° |
| 2026-04-24 21:41 | 42.02000 | -102.59042 | 39773 ft | 441 kts | 259° |
| 2026-04-24 21:42 | 42.00880 | -102.67142 | 39780 ft | 441 kts | 259° |
| 2026-04-24 21:42 | 41.99756 | -102.75247 | 39786 ft | 441 kts | 259° |
| 2026-04-24 21:43 | 41.98631 | -102.83352 | 39785 ft | 441 kts | 259° |
| 2026-04-24 21:43 | 41.97503 | -102.91443 | 39779 ft | 440 kts | 259° |
| 2026-04-24 21:44 | 41.96369 | -102.99535 | 39769 ft | 440 kts | 259° |
| 2026-04-24 21:44 | 41.95237 | -103.07566 | 39757 ft | 440 kts | 259° |
| 2026-04-24 21:45 | 41.94092 | -103.15647 | 39723 ft | 441 kts | 259° |
| 2026-04-24 21:45 | 41.92938 | -103.23749 | 39739 ft | 442 kts | 259° |
| 2026-04-24 21:46 | 41.91777 | -103.31863 | 39748 ft | 443 kts | 259° |
| 2026-04-24 21:46 | 41.90610 | -103.39969 | 39762 ft | 442 kts | 259° |
| 2026-04-24 21:47 | 41.88923 | -103.47898 | 39776 ft | 443 kts | 248° |
| 2026-04-24 21:47 | 41.85848 | -103.55078 | 39776 ft | 445 kts | 238° |
| 2026-04-24 21:48 | 41.82258 | -103.61871 | 39777 ft | 446 kts | 237° |
| 2026-04-24 21:48 | 41.78594 | -103.68582 | 39769 ft | 446 kts | 237° |
| 2026-04-24 21:49 | 41.74945 | -103.75318 | 39758 ft | 446 kts | 237° |
| 2026-04-24 21:49 | 41.71322 | -103.82056 | 39745 ft | 446 kts | 237° |
| 2026-04-24 21:50 | 41.67725 | -103.88751 | 39733 ft | 445 kts | 237° |
| 2026-04-24 21:50 | 41.64125 | -103.95433 | 39722 ft | 442 kts | 237° |
| 2026-04-24 21:51 | 41.60534 | -104.02084 | 39721 ft | 441 kts | 237° |
| 2026-04-24 21:51 | 41.56941 | -104.08723 | 39705 ft | 441 kts | 237° |
| 2026-04-24 21:52 | 41.53342 | -104.15358 | 39707 ft | 441 kts | 237° |
| 2026-04-24 21:52 | 41.49749 | -104.21964 | 39685 ft | 438 kts | 237° |
| 2026-04-24 21:53 | 41.46223 | -104.28565 | 39688 ft | 436 kts | 240° |
| 2026-04-24 21:53 | 41.42685 | -104.35137 | 39692 ft | 437 kts | 237° |
| 2026-04-24 21:54 | 41.39059 | -104.41633 | 39690 ft | 437 kts | 237° |
| 2026-04-24 21:54 | 41.35446 | -104.48143 | 39694 ft | 437 kts | 237° |
| 2026-04-24 21:55 | 41.31855 | -104.54662 | 39719 ft | 437 kts | 237° |
| 2026-04-24 21:55 | 41.28268 | -104.61180 | 39746 ft | 437 kts | 237° |
| 2026-04-24 21:56 | 41.24678 | -104.67689 | 39763 ft | 437 kts | 238° |
| 2026-04-24 21:56 | 41.21081 | -104.74194 | 39793 ft | 437 kts | 237° |
| 2026-04-24 21:57 | 41.17476 | -104.80700 | 39778 ft | 437 kts | 237° |
| 2026-04-24 21:57 | 41.15561 | -104.83804 | 39758 ft | 433 kts | 220° |
| 2026-04-24 21:57 | 41.13585 | -104.86802 | 39770 ft | 433 kts | 234° |
| 2026-04-24 21:58 | 41.10127 | -104.93275 | 39758 ft | 428 kts | 249° |
| 2026-04-24 21:58 | 41.08671 | -104.96675 | 39747 ft | 419 kts | 262° |
| 2026-04-24 21:58 | 41.07235 | -105.00007 | 39730 ft | 418 kts | 239° |
| 2026-04-24 21:59 | 41.03659 | -105.06234 | 39663 ft | 430 kts | 235° |
| 2026-04-24 21:59 | 40.99874 | -105.12474 | 39644 ft | 439 kts | 236° |
| 2026-04-24 22:00 | 40.96152 | -105.18888 | 39651 ft | 439 kts | 237° |
| 2026-04-24 22:00 | 40.92500 | -105.25357 | 39642 ft | 438 kts | 237° |
| 2026-04-24 22:01 | 40.88871 | -105.31818 | 39631 ft | 439 kts | 237° |
| 2026-04-24 22:01 | 40.85215 | -105.38309 | 39637 ft | 441 kts | 237° |
| 2026-04-24 22:02 | 40.81544 | -105.44802 | 39635 ft | 441 kts | 237° |
| 2026-04-24 22:02 | 40.77873 | -105.51275 | 39663 ft | 441 kts | 237° |
| 2026-04-24 22:03 | 40.74365 | -105.57449 | 39664 ft | 441 kts | 237° |
| 2026-04-24 22:03 | 40.70678 | -105.63924 | 39666 ft | 441 kts | 237° |
| 2026-04-24 22:04 | 40.66982 | -105.70405 | 39691 ft | 444 kts | 237° |
| 2026-04-24 22:04 | 40.63263 | -105.76910 | 39689 ft | 445 kts | 237° |
| 2026-04-24 22:05 | 40.59534 | -105.83414 | 39702 ft | 445 kts | 237° |
| 2026-04-24 22:05 | 40.55828 | -105.89867 | 39711 ft | 445 kts | 237° |
| 2026-04-24 22:06 | 40.52068 | -105.96401 | 39711 ft | 445 kts | 237° |
| 2026-04-24 22:06 | 40.48593 | -106.03024 | 39706 ft | 442 kts | 241° |
| 2026-04-24 22:07 | 40.45347 | -106.09849 | 39705 ft | 440 kts | 242° |
| 2026-04-24 22:07 | 40.42136 | -106.16692 | 39711 ft | 440 kts | 242° |
| 2026-04-24 22:08 | 40.38919 | -106.23533 | 39707 ft | 440 kts | 242° |
| 2026-04-24 22:08 | 40.35696 | -106.30354 | 39708 ft | 440 kts | 242° |
| 2026-04-24 22:09 | 40.32465 | -106.37176 | 39709 ft | 440 kts | 242° |
| 2026-04-24 22:09 | 40.29245 | -106.43962 | 39712 ft | 438 kts | 242° |
| 2026-04-24 22:10 | 40.26024 | -106.50720 | 39716 ft | 437 kts | 242° |
| 2026-04-24 22:10 | 40.22799 | -106.57473 | 39717 ft | 437 kts | 242° |
| 2026-04-24 22:11 | 40.19596 | -106.64171 | 39723 ft | 437 kts | 242° |
| 2026-04-24 22:11 | 40.16364 | -106.70915 | 39716 ft | 437 kts | 242° |
| 2026-04-24 22:12 | 40.13127 | -106.77657 | 39732 ft | 438 kts | 242° |
| 2026-04-24 22:12 | 40.09883 | -106.84399 | 39727 ft | 439 kts | 242° |
| 2026-04-24 22:13 | 40.06631 | -106.91139 | 39753 ft | 438 kts | 242° |
| 2026-04-24 22:13 | 40.03377 | -106.97872 | 39751 ft | 438 kts | 242° |
| 2026-04-24 22:14 | 40.00120 | -107.04594 | 39753 ft | 438 kts | 242° |
| 2026-04-24 22:14 | 39.96865 | -107.11301 | 39761 ft | 437 kts | 242° |
| 2026-04-24 22:15 | 39.93607 | -107.17997 | 39765 ft | 438 kts | 242° |
| 2026-04-24 22:15 | 39.90345 | -107.24687 | 39773 ft | 437 kts | 241° |
| 2026-04-24 22:16 | 39.87080 | -107.31370 | 39771 ft | 437 kts | 241° |
| 2026-04-24 22:16 | 39.84363 | -107.36918 | 39765 ft | 437 kts | 241° |
| 2026-04-24 22:17 | 39.81095 | -107.43589 | 39766 ft | 437 kts | 241° |
| 2026-04-24 22:17 | 39.77828 | -107.50248 | 39770 ft | 435 kts | 241° |
| 2026-04-24 22:18 | 39.74571 | -107.56856 | 39788 ft | 434 kts | 241° |
| 2026-04-24 22:18 | 39.71317 | -107.63449 | 39789 ft | 433 kts | 241° |
| 2026-04-24 22:19 | 39.68058 | -107.70041 | 39813 ft | 434 kts | 241° |
| 2026-04-24 22:19 | 39.64795 | -107.76615 | 39819 ft | 433 kts | 241° |
| 2026-04-24 22:20 | 39.61532 | -107.83183 | 39739 ft | 433 kts | 241° |
| 2026-04-24 22:20 | 39.58266 | -107.89744 | 39737 ft | 433 kts | 241° |
| 2026-04-24 22:21 | 39.55001 | -107.96291 | 39739 ft | 433 kts | 241° |
| 2026-04-24 22:21 | 39.51729 | -108.02840 | 39731 ft | 433 kts | 241° |
| 2026-04-24 22:22 | 39.48449 | -108.09384 | 39747 ft | 434 kts | 241° |
| 2026-04-24 22:22 | 39.45168 | -108.15917 | 39738 ft | 432 kts | 241° |
| 2026-04-24 22:23 | 39.41915 | -108.22395 | 39734 ft | 432 kts | 241° |
| 2026-04-24 22:23 | 39.38638 | -108.28904 | 39737 ft | 432 kts | 241° |
| 2026-04-24 22:24 | 39.35354 | -108.35409 | 39758 ft | 432 kts | 241° |
| 2026-04-24 22:24 | 39.32069 | -108.41902 | 39766 ft | 432 kts | 241° |
| 2026-04-24 22:25 | 39.28775 | -108.48399 | 39782 ft | 433 kts | 241° |
| 2026-04-24 22:25 | 39.25468 | -108.54908 | 39800 ft | 434 kts | 240° |
| 2026-04-24 22:26 | 39.22159 | -108.61406 | 39803 ft | 434 kts | 240° |
| 2026-04-24 22:26 | 39.18842 | -108.67911 | 39800 ft | 434 kts | 240° |
| 2026-04-24 22:27 | 39.15521 | -108.74410 | 39785 ft | 434 kts | 240° |
| 2026-04-24 22:27 | 39.12198 | -108.80898 | 39719 ft | 433 kts | 240° |
| 2026-04-24 22:28 | 39.08884 | -108.87353 | 39714 ft | 432 kts | 240° |
| 2026-04-24 22:28 | 39.05570 | -108.93799 | 39717 ft | 432 kts | 240° |
| 2026-04-24 22:29 | 39.00589 | -109.03460 | 39717 ft | 432 kts | 240° |
| 2026-04-24 22:29 | 38.97265 | -109.09893 | 39709 ft | 432 kts | 240° |
| 2026-04-24 22:30 | 38.93939 | -109.16317 | 39714 ft | 431 kts | 240° |
| 2026-04-24 22:30 | 38.90623 | -109.22708 | 39710 ft | 430 kts | 240° |
| 2026-04-24 22:31 | 38.87326 | -109.29049 | 39712 ft | 430 kts | 240° |
| 2026-04-24 22:31 | 38.84005 | -109.35426 | 39712 ft | 430 kts | 240° |
| 2026-04-24 22:32 | 38.80682 | -109.41793 | 39710 ft | 429 kts | 240° |
| 2026-04-24 22:32 | 38.77357 | -109.48151 | 39705 ft | 429 kts | 240° |
| 2026-04-24 22:33 | 38.74031 | -109.54498 | 39704 ft | 429 kts | 240° |
| 2026-04-24 22:33 | 38.70697 | -109.60848 | 39707 ft | 430 kts | 240° |
| 2026-04-24 22:34 | 38.67356 | -109.67199 | 39701 ft | 430 kts | 240° |
| 2026-04-24 22:34 | 38.64016 | -109.73536 | 39701 ft | 429 kts | 240° |
| 2026-04-24 22:35 | 38.60672 | -109.79868 | 39703 ft | 429 kts | 240° |
| 2026-04-24 22:35 | 38.57328 | -109.86188 | 39696 ft | 430 kts | 240° |
| 2026-04-24 22:36 | 38.53976 | -109.92510 | 39695 ft | 430 kts | 240° |
| 2026-04-24 22:36 | 38.50620 | -109.98827 | 39672 ft | 430 kts | 240° |
| 2026-04-24 22:37 | 38.47290 | -110.05145 | 39700 ft | 428 kts | 240° |
| 2026-04-24 22:37 | 38.44009 | -110.11480 | 39705 ft | 428 kts | 240° |
| 2026-04-24 22:38 | 38.40753 | -110.17764 | 39702 ft | 428 kts | 240° |
| 2026-04-24 22:38 | 38.37462 | -110.24083 | 39698 ft | 428 kts | 240° |
| 2026-04-24 22:39 | 38.34164 | -110.30391 | 39696 ft | 428 kts | 240° |
| 2026-04-24 22:39 | 38.30860 | -110.36696 | 39697 ft | 428 kts | 240° |
| 2026-04-24 22:40 | 38.27554 | -110.42992 | 39699 ft | 428 kts | 240° |
| 2026-04-24 22:40 | 38.24249 | -110.49276 | 39694 ft | 428 kts | 240° |
| 2026-04-24 22:41 | 38.20926 | -110.55582 | 39695 ft | 429 kts | 240° |
| 2026-04-24 22:41 | 38.17598 | -110.61883 | 39694 ft | 429 kts | 240° |
| 2026-04-24 22:42 | 38.14274 | -110.68161 | 39728 ft | 427 kts | 240° |
| 2026-04-24 22:42 | 38.10958 | -110.74420 | 39723 ft | 427 kts | 240° |
| 2026-04-24 22:43 | 38.07654 | -110.80635 | 39718 ft | 427 kts | 240° |
| 2026-04-24 22:43 | 38.04310 | -110.86908 | 39702 ft | 425 kts | 240° |
| 2026-04-24 22:44 | 38.01024 | -110.93079 | 39721 ft | 425 kts | 240° |
| 2026-04-24 22:44 | 37.97712 | -110.99285 | 39723 ft | 425 kts | 240° |
| 2026-04-24 22:45 | 37.94396 | -111.05489 | 39729 ft | 425 kts | 240° |
| 2026-04-24 22:45 | 37.91072 | -111.11695 | 39736 ft | 426 kts | 240° |
| 2026-04-24 22:46 | 37.87744 | -111.17889 | 39742 ft | 425 kts | 239° |
| 2026-04-24 22:46 | 37.84414 | -111.24075 | 39741 ft | 425 kts | 239° |
| 2026-04-24 22:47 | 37.81086 | -111.30250 | 39751 ft | 424 kts | 239° |
| 2026-04-24 22:47 | 37.77764 | -111.36399 | 39746 ft | 423 kts | 240° |
| 2026-04-24 22:48 | 37.74438 | -111.42545 | 39759 ft | 423 kts | 239° |
| 2026-04-24 22:48 | 37.71113 | -111.48680 | 39756 ft | 423 kts | 239° |
| 2026-04-24 22:49 | 37.67781 | -111.54814 | 39769 ft | 424 kts | 239° |
| 2026-04-24 22:49 | 37.64442 | -111.60949 | 39769 ft | 424 kts | 239° |
| 2026-04-24 22:50 | 37.61103 | -111.67074 | 39765 ft | 424 kts | 239° |
| 2026-04-24 22:50 | 37.57759 | -111.73197 | 39770 ft | 424 kts | 239° |
| 2026-04-24 22:51 | 37.54409 | -111.79318 | 39797 ft | 424 kts | 239° |
| 2026-04-24 22:51 | 37.51050 | -111.85448 | 39819 ft | 427 kts | 239° |
| 2026-04-24 22:52 | 37.47624 | -111.91571 | 39814 ft | 429 kts | 238° |
| 2026-04-24 22:52 | 37.44093 | -111.97545 | 39824 ft | 428 kts | 237° |
| 2026-04-24 22:53 | 37.40532 | -112.03543 | 39813 ft | 427 kts | 238° |
| 2026-04-24 22:53 | 37.36996 | -112.09548 | 39799 ft | 427 kts | 238° |
| 2026-04-24 22:54 | 37.33478 | -112.15555 | 39783 ft | 427 kts | 238° |
| 2026-04-24 22:54 | 37.29960 | -112.21548 | 39775 ft | 426 kts | 238° |
| 2026-04-24 22:55 | 37.26441 | -112.27535 | 39779 ft | 426 kts | 238° |
| 2026-04-24 22:55 | 37.22919 | -112.33514 | 39794 ft | 426 kts | 238° |
| 2026-04-24 22:56 | 37.19397 | -112.39483 | 39779 ft | 426 kts | 238° |
| 2026-04-24 22:56 | 37.15893 | -112.45411 | 39783 ft | 426 kts | 238° |
| 2026-04-24 22:57 | 37.12366 | -112.51368 | 39783 ft | 425 kts | 238° |
| 2026-04-24 22:57 | 37.08841 | -112.57310 | 39798 ft | 425 kts | 238° |
| 2026-04-24 22:58 | 37.05314 | -112.63247 | 39818 ft | 425 kts | 238° |
| 2026-04-24 22:58 | 37.01790 | -112.69184 | 39832 ft | 425 kts | 238° |
| 2026-04-24 22:59 | 36.98258 | -112.75110 | 39860 ft | 425 kts | 238° |
| 2026-04-24 23:00 | 36.92957 | -112.83985 | 39907 ft | 424 kts | 237° |
| 2026-04-24 23:00 | 36.89428 | -112.89883 | 39925 ft | 423 kts | 237° |
| 2026-04-24 23:01 | 36.85903 | -112.95768 | 39923 ft | 423 kts | 237° |
| 2026-04-24 23:01 | 36.82369 | -113.01655 | 39911 ft | 424 kts | 237° |
| 2026-04-24 23:02 | 36.78865 | -113.07482 | 39891 ft | 422 kts | 237° |
| 2026-04-24 23:02 | 36.75342 | -113.13331 | 39870 ft | 421 kts | 237° |
| 2026-04-24 23:03 | 36.71816 | -113.19175 | 39849 ft | 422 kts | 237° |
| 2026-04-24 23:03 | 36.68283 | -113.25020 | 39825 ft | 422 kts | 237° |
| 2026-04-24 23:04 | 36.64747 | -113.30861 | 39813 ft | 422 kts | 237° |
| 2026-04-24 23:04 | 36.61223 | -113.36706 | 39813 ft | 422 kts | 238° |
| 2026-04-24 23:05 | 36.57838 | -113.42665 | 39813 ft | 421 kts | 239° |
| 2026-04-24 23:05 | 36.54493 | -113.48646 | 39812 ft | 421 kts | 239° |
| 2026-04-24 23:06 | 36.51127 | -113.54607 | 39804 ft | 421 kts | 239° |
| 2026-04-24 23:06 | 36.47744 | -113.60550 | 39803 ft | 421 kts | 239° |
| 2026-04-24 23:07 | 36.44375 | -113.66449 | 39792 ft | 421 kts | 239° |
| 2026-04-24 23:07 | 36.40985 | -113.72373 | 39793 ft | 421 kts | 239° |
| 2026-04-24 23:08 | 36.37597 | -113.78289 | 39775 ft | 420 kts | 239° |
| 2026-04-24 23:08 | 36.34766 | -113.83225 | 39776 ft | 419 kts | 239° |
| 2026-04-24 23:09 | 36.30832 | -113.90068 | 39760 ft | 419 kts | 238° |
| 2026-04-24 23:09 | 36.27996 | -113.94991 | 39760 ft | 419 kts | 238° |
| 2026-04-24 23:10 | 36.24608 | -114.00867 | 39742 ft | 419 kts | 238° |
| 2026-04-24 23:10 | 36.21220 | -114.06733 | 39742 ft | 419 kts | 238° |
| 2026-04-24 23:11 | 36.17819 | -114.12609 | 39741 ft | 421 kts | 238° |
| 2026-04-24 23:11 | 36.14430 | -114.18460 | 39748 ft | 421 kts | 238° |
| 2026-04-24 23:12 | 36.11017 | -114.24343 | 39723 ft | 421 kts | 238° |
| 2026-04-24 23:12 | 36.07436 | -114.30094 | 39710 ft | 425 kts | 234° |
| 2026-04-24 23:13 | 36.03535 | -114.35591 | 39716 ft | 425 kts | 233° |
| 2026-04-24 23:13 | 35.99590 | -114.41036 | 39704 ft | 426 kts | 233° |
| 2026-04-24 23:14 | 35.95628 | -114.46493 | 39721 ft | 427 kts | 233° |
| 2026-04-24 23:14 | 35.91668 | -114.51954 | 39725 ft | 427 kts | 233° |
| 2026-04-24 23:15 | 35.87709 | -114.57409 | 39735 ft | 427 kts | 233° |
| 2026-04-24 23:15 | 35.83748 | -114.62864 | 39714 ft | 427 kts | 233° |
| 2026-04-24 23:16 | 35.79785 | -114.68313 | 39770 ft | 427 kts | 233° |
| 2026-04-24 23:16 | 35.75821 | -114.73753 | 39766 ft | 427 kts | 233° |
| 2026-04-24 23:17 | 35.71852 | -114.79187 | 39801 ft | 427 kts | 233° |
| 2026-04-24 23:17 | 35.67876 | -114.84623 | 39810 ft | 427 kts | 232° |
| 2026-04-24 23:18 | 35.63933 | -114.90023 | 39806 ft | 427 kts | 233° |
| 2026-04-24 23:18 | 35.59964 | -114.95448 | 39805 ft | 427 kts | 233° |
| 2026-04-24 23:19 | 35.55991 | -115.00871 | 39818 ft | 427 kts | 233° |
| 2026-04-24 23:19 | 35.52029 | -115.06272 | 39825 ft | 425 kts | 233° |
| 2026-04-24 23:20 | 35.48042 | -115.11624 | 39831 ft | 425 kts | 232° |
| 2026-04-24 23:20 | 35.43983 | -115.16888 | 39834 ft | 425 kts | 232° |
| 2026-04-24 23:21 | 35.39929 | -115.22161 | 39851 ft | 425 kts | 232° |
| 2026-04-24 23:21 | 35.35873 | -115.27441 | 39865 ft | 425 kts | 232° |
| 2026-04-24 23:22 | 35.31816 | -115.32718 | 39860 ft | 425 kts | 232° |
| 2026-04-24 23:22 | 35.27757 | -115.37990 | 39861 ft | 425 kts | 232° |
| 2026-04-24 23:23 | 35.23705 | -115.43244 | 39867 ft | 424 kts | 232° |
| 2026-04-24 23:23 | 35.19652 | -115.48493 | 39867 ft | 425 kts | 232° |
| 2026-04-24 23:24 | 35.15595 | -115.53739 | 39863 ft | 425 kts | 232° |
| 2026-04-24 23:24 | 35.11563 | -115.58948 | 39854 ft | 424 kts | 233° |
| 2026-04-24 23:25 | 35.07463 | -115.64196 | 39848 ft | 424 kts | 232° |
| 2026-04-24 23:25 | 35.03415 | -115.69362 | 39850 ft | 424 kts | 232° |
| 2026-04-24 23:26 | 34.99335 | -115.74566 | 39851 ft | 424 kts | 232° |
| 2026-04-24 23:26 | 34.95250 | -115.79770 | 39838 ft | 425 kts | 232° |
| 2026-04-24 23:27 | 34.91167 | -115.84964 | 39828 ft | 425 kts | 232° |
| 2026-04-24 23:27 | 34.87074 | -115.90162 | 39815 ft | 425 kts | 232° |
| 2026-04-24 23:28 | 34.82985 | -115.95350 | 39772 ft | 425 kts | 232° |
| 2026-04-24 23:28 | 34.80932 | -115.97950 | 39551 ft | 425 kts | 232° |
| 2026-04-24 23:28 | 34.78887 | -116.00540 | 39295 ft | 424 kts | 232° |
| 2026-04-24 23:28 | 34.76850 | -116.03116 | 39050 ft | 422 kts | 232° |
| 2026-04-24 23:29 | 34.74821 | -116.05699 | 38828 ft | 421 kts | 232° |
| 2026-04-24 23:29 | 34.72801 | -116.08277 | 38600 ft | 421 kts | 233° |
| 2026-04-24 23:29 | 34.70784 | -116.10848 | 38362 ft | 421 kts | 233° |
| 2026-04-24 23:29 | 34.68764 | -116.13421 | 38075 ft | 420 kts | 232° |
| 2026-04-24 23:30 | 34.66747 | -116.15986 | 37787 ft | 420 kts | 232° |
| 2026-04-24 23:30 | 34.64728 | -116.18552 | 37521 ft | 420 kts | 232° |
| 2026-04-24 23:30 | 34.62735 | -116.21083 | 37254 ft | 420 kts | 232° |
| 2026-04-24 23:30 | 34.60691 | -116.23677 | 36993 ft | 420 kts | 232° |
| 2026-04-24 23:31 | 34.58698 | -116.26204 | 36734 ft | 420 kts | 232° |
| 2026-04-24 23:31 | 34.56680 | -116.28760 | 36484 ft | 418 kts | 232° |
| 2026-04-24 23:31 | 34.54671 | -116.31301 | 36218 ft | 418 kts | 232° |
| 2026-04-24 23:31 | 34.52660 | -116.33846 | 35972 ft | 417 kts | 232° |
| 2026-04-24 23:32 | 34.50652 | -116.36385 | 35723 ft | 417 kts | 232° |
| 2026-04-24 23:32 | 34.48642 | -116.38924 | 35328 ft | 416 kts | 232° |
| 2026-04-24 23:32 | 34.46640 | -116.41451 | 34534 ft | 416 kts | 231° |
| 2026-04-24 23:32 | 34.44632 | -116.43985 | 33626 ft | 418 kts | 231° |
| 2026-04-24 23:33 | 34.42693 | -116.46618 | 32606 ft | 419 kts | 235° |
| 2026-04-24 23:33 | 34.41027 | -116.49493 | 31622 ft | 418 kts | 242° |
| 2026-04-24 23:33 | 34.39658 | -116.52589 | 31021 ft | 411 kts | 246° |
| 2026-04-24 23:33 | 34.38408 | -116.55628 | 30888 ft | 396 kts | 246° |
| 2026-04-24 23:34 | 34.37201 | -116.58566 | 30751 ft | 382 kts | 246° |
| 2026-04-24 23:34 | 34.36035 | -116.61399 | 30626 ft | 371 kts | 246° |
| 2026-04-24 23:34 | 34.34890 | -116.64181 | 30419 ft | 366 kts | 246° |
| 2026-04-24 23:34 | 34.33761 | -116.66921 | 29952 ft | 362 kts | 246° |
| 2026-04-24 23:35 | 34.32648 | -116.69645 | 29366 ft | 361 kts | 246° |
| 2026-04-24 23:35 | 34.31548 | -116.72389 | 28801 ft | 363 kts | 247° |
| 2026-04-24 23:35 | 34.30452 | -116.75129 | 28278 ft | 362 kts | 247° |
| 2026-04-24 23:35 | 34.29356 | -116.77865 | 27742 ft | 360 kts | 247° |
| 2026-04-24 23:36 | 34.28265 | -116.80574 | 27206 ft | 357 kts | 247° |
| 2026-04-24 23:36 | 34.27182 | -116.83268 | 26669 ft | 355 kts | 247° |
| 2026-04-24 23:36 | 34.26107 | -116.85941 | 26133 ft | 352 kts | 247° |
| 2026-04-24 23:36 | 34.25035 | -116.88593 | 25620 ft | 350 kts | 247° |
| 2026-04-24 23:37 | 34.23969 | -116.91229 | 25101 ft | 348 kts | 247° |
| 2026-04-24 23:37 | 34.22908 | -116.93853 | 24580 ft | 347 kts | 247° |
| 2026-04-24 23:37 | 34.20910 | -116.99107 | 23548 ft | 341 kts | 252° |
| 2026-04-24 23:38 | 34.20157 | -117.01783 | 22987 ft | 339 kts | 254° |
| 2026-04-24 23:38 | 34.19436 | -117.04478 | 22476 ft | 336 kts | 254° |
| 2026-04-24 23:38 | 34.18719 | -117.07159 | 21950 ft | 334 kts | 253° |
| 2026-04-24 23:38 | 34.17999 | -117.09825 | 21494 ft | 334 kts | 253° |
| 2026-04-24 23:39 | 34.17279 | -117.12481 | 20981 ft | 332 kts | 253° |
| 2026-04-24 23:39 | 34.16562 | -117.15120 | 20445 ft | 329 kts | 253° |
| 2026-04-24 23:39 | 34.15860 | -117.17732 | 19985 ft | 327 kts | 253° |
| 2026-04-24 23:39 | 34.15144 | -117.20334 | 19530 ft | 327 kts | 253° |
| 2026-04-24 23:40 | 34.14424 | -117.22937 | 19034 ft | 326 kts | 252° |
| 2026-04-24 23:40 | 34.13705 | -117.25532 | 18544 ft | 325 kts | 252° |
| 2026-04-24 23:40 | 34.12991 | -117.28116 | 18029 ft | 324 kts | 252° |
| 2026-04-24 23:40 | 34.12279 | -117.30692 | 17506 ft | 323 kts | 252° |
| 2026-04-24 23:41 | 34.11584 | -117.33208 | 17039 ft | 322 kts | 252° |
| 2026-04-24 23:41 | 34.10878 | -117.35760 | 16576 ft | 319 kts | 252° |
| 2026-04-24 23:41 | 34.10193 | -117.38262 | 16299 ft | 309 kts | 253° |
| 2026-04-24 23:41 | 34.09573 | -117.40725 | 15824 ft | 306 kts | 254° |
| 2026-04-24 23:42 | 34.08970 | -117.43179 | 15491 ft | 305 kts | 254° |
| 2026-04-24 23:42 | 34.08365 | -117.45628 | 14952 ft | 305 kts | 253° |
| 2026-04-24 23:42 | 34.07757 | -117.48073 | 14447 ft | 304 kts | 253° |
| 2026-04-24 23:42 | 34.07213 | -117.50529 | 13990 ft | 302 kts | 257° |
| 2026-04-24 23:43 | 34.06791 | -117.52970 | 13756 ft | 292 kts | 258° |
| 2026-04-24 23:43 | 34.06401 | -117.55325 | 13513 ft | 282 kts | 258° |
| 2026-04-24 23:43 | 34.06021 | -117.57626 | 13102 ft | 278 kts | 258° |
| 2026-04-24 23:43 | 34.05648 | -117.59889 | 12439 ft | 273 kts | 258° |
| 2026-04-24 23:44 | 34.05278 | -117.62131 | 11588 ft | 273 kts | 258° |
| 2026-04-24 23:44 | 34.04907 | -117.64383 | 10750 ft | 274 kts | 258° |
| 2026-04-24 23:44 | 34.04537 | -117.66641 | 9974 ft | 273 kts | 258° |
| 2026-04-24 23:44 | 34.04169 | -117.68874 | 9185 ft | 271 kts | 258° |
| 2026-04-24 23:45 | 34.03795 | -117.71105 | 8324 ft | 272 kts | 258° |
| 2026-04-24 23:45 | 34.03428 | -117.73318 | 7685 ft | 266 kts | 258° |
| 2026-04-24 23:45 | 34.03068 | -117.75496 | 6945 ft | 264 kts | 258° |
| 2026-04-24 23:45 | 34.02708 | -117.77664 | 6212 ft | 266 kts | 258° |
| 2026-04-24 23:46 | 34.02333 | -117.79866 | 5726 ft | 267 kts | 258° |
| 2026-04-24 23:46 | 34.01963 | -117.82021 | 5520 ft | 258 kts | 258° |
| 2026-04-24 23:46 | 34.01607 | -117.84089 | 5331 ft | 247 kts | 258° |
| 2026-04-24 23:46 | 34.01262 | -117.86072 | 5171 ft | 237 kts | 258° |
| 2026-04-24 23:47 | 34.00951 | -117.87976 | 5028 ft | 226 kts | 262° |
| 2026-04-24 23:47 | 34.00487 | -117.89741 | 4845 ft | 219 kts | 245° |
| 2026-04-24 23:47 | 33.99810 | -117.91390 | 4525 ft | 218 kts | 243° |
| 2026-04-24 23:47 | 33.99131 | -117.93014 | 4262 ft | 215 kts | 246° |
| 2026-04-24 23:48 | 33.98573 | -117.94640 | 4156 ft | 204 kts | 250° |
| 2026-04-24 23:48 | 33.98171 | -117.96253 | 3837 ft | 199 kts | 257° |
| 2026-04-24 23:48 | 33.97915 | -117.97882 | 3522 ft | 197 kts | 260° |
| 2026-04-24 23:48 | 33.97736 | -117.99506 | 3205 ft | 194 kts | 261° |
| 2026-04-24 23:49 | 33.97580 | -118.01106 | 2807 ft | 194 kts | 261° |
| 2026-04-24 23:49 | 33.97413 | -118.02733 | 2421 ft | 195 kts | 261° |
| 2026-04-24 23:49 | 33.97245 | -118.04337 | 2138 ft | 192 kts | 260° |
| 2026-04-24 23:49 | 33.97076 | -118.05920 | 1900 ft | 187 kts | 260° |
| 2026-04-24 23:50 | 33.96915 | -118.07419 | 1861 ft | 173 kts | 260° |
| 2026-04-24 23:50 | 33.96772 | -118.08790 | 1866 ft | 161 kts | 260° |
| 2026-04-24 23:50 | 33.96635 | -118.10121 | 1881 ft | 159 kts | 259° |
| 2026-04-24 23:50 | 33.96499 | -118.11434 | 1875 ft | 157 kts | 257° |
| 2026-04-24 23:51 | 33.96362 | -118.12748 | 1910 ft | 158 kts | 258° |
| 2026-04-24 23:51 | 33.96229 | -118.14042 | 1890 ft | 150 kts | 258° |
| 2026-04-24 23:51 | 33.96107 | -118.15232 | 1880 ft | 139 kts | 259° |
| 2026-04-24 23:51 | 33.95995 | -118.16355 | 1898 ft | 137 kts | 257° |
| 2026-04-24 23:52 | 33.95880 | -118.17485 | 1894 ft | 135 kts | 257° |
| 2026-04-24 23:52 | 33.95763 | -118.18600 | 1893 ft | 134 kts | 259° |
| 2026-04-24 23:52 | 33.95647 | -118.19717 | 1897 ft | 135 kts | 257° |
| 2026-04-24 23:52 | 33.95531 | -118.20830 | 1891 ft | 133 kts | 258° |
| 2026-04-24 23:53 | 33.95417 | -118.21934 | 1892 ft | 134 kts | 258° |
| 2026-04-24 23:53 | 33.95303 | -118.23049 | 1903 ft | 136 kts | 257° |
| 2026-04-24 23:53 | 33.95192 | -118.24156 | 1882 ft | 130 kts | 255° |
| 2026-04-24 23:53 | 33.95079 | -118.25217 | 1885 ft | 128 kts | 259° |
| 2026-04-24 23:54 | 33.94972 | -118.26286 | 1891 ft | 128 kts | 257° |
| 2026-04-24 23:54 | 33.94859 | -118.27355 | 1877 ft | 129 kts | 259° |
| 2026-04-24 23:54 | 33.94751 | -118.28439 | 1735 ft | 131 kts | 256° |
| 2026-04-24 23:54 | 33.94639 | -118.29516 | 1551 ft | 129 kts | 256° |
| 2026-04-24 23:55 | 33.94530 | -118.30575 | 1380 ft | 126 kts | 257° |
| 2026-04-24 23:55 | 33.94421 | -118.31617 | 1229 ft | 128 kts | 259° |
| 2026-04-24 23:55 | 33.94318 | -118.32679 | 1051 ft | 126 kts | 261° |
| 2026-04-24 23:55 | 33.94224 | -118.33728 | 835 ft | 125 kts | 261° |
| 2026-04-24 23:56 | 33.94080 | -118.34766 | 697 ft | 126 kts | 256° |
| 2026-04-24 23:56 | 33.93935 | -118.35802 | 482 ft | 124 kts | 262° |
| 2026-04-24 23:56 | 33.93849 | -118.36841 | 315 ft | 125 kts | 265° |
| 2026-04-24 23:56 | 33.93783 | -118.37866 | 195 ft | 122 kts | 261° |
| 2026-04-24 23:57 | 33.93667 | -118.38877 | 105 ft | 120 kts | 261° |
| 2026-04-24 23:57 | 33.93613 | -118.39454 | 102 ft | 81 kts | 264° |
| 2026-04-24 23:57 | 33.93576 | -118.39881 | 104 ft | 38 kts | 263° |
| 2026-04-24 23:57 | 33.93565 | -118.40119 | 105 ft | 12 kts | 278° |
| 2026-04-24 23:58 | 33.93586 | -118.40242 | 102 ft | 14 kts | 284° |
| 2026-04-24 23:58 | 33.93606 | -118.40316 | 105 ft | 13 kts | 288° |
| 2026-04-24 23:58 | 33.93627 | -118.40429 | 103 ft | 15 kts | 269° |
| 2026-04-24 23:58 | 33.93614 | -118.40562 | 102 ft | 17 kts | 263° |
| 2026-04-24 23:59 | 33.93598 | -118.40716 | 101 ft | 19 kts | 263° |
| 2026-04-24 23:59 | 33.93596 | -118.40817 | 103 ft | 3 kts | 278° |
| 2026-04-24 23:59 | 33.93596 | -118.40818 | 103 ft | 0 kts | 278° |
| 2026-04-25 00:00 | 33.93598 | -118.40828 | 100 ft | 7 kts | 283° |
| 2026-04-25 00:00 | 33.93638 | -118.40886 | 104 ft | 9 kts | 331° |
| 2026-04-25 00:00 | 33.93713 | -118.40901 | 102 ft | 13 kts | 353° |
| 2026-04-25 00:01 | 33.93820 | -118.40916 | 101 ft | 17 kts | 354° |
| 2026-04-25 00:01 | 33.93864 | -118.40970 | 103 ft | 7 kts | 268° |
| 2026-04-25 00:01 | 33.93855 | -118.41038 | 101 ft | 10 kts | 261° |
| 2026-04-25 00:01 | 33.93848 | -118.41128 | 99 ft | 12 kts | 268° |
| 2026-04-25 00:02 | 33.93841 | -118.41221 | 99 ft | 12 kts | 268° |
| 2026-04-25 00:02 | 33.93876 | -118.41270 | 100 ft | 8 kts | 340° |
| 2026-04-25 00:02 | 33.93941 | -118.41278 | 101 ft | 11 kts | 356° |
| 2026-04-25 00:02 | 33.93994 | -118.41281 | 100 ft | 8 kts | 357° |
| 2026-04-25 00:03 | 33.94038 | -118.41286 | 102 ft | 0 kts | 354° |
| 2026-04-25 00:03 | 33.94045 | -118.41287 | 101 ft | 5 kts | 354° |
| 2026-04-25 00:03 | 33.94102 | -118.41297 | 100 ft | 11 kts | 350° |
| 2026-04-25 00:03 | 33.94178 | -118.41320 | 101 ft | 10 kts | 324° |
| 2026-04-25 00:04 | 33.94187 | -118.41362 | 103 ft | 6 kts | 271° |
| 2026-04-25 00:04 | 33.94186 | -118.41372 | 102 ft | 1 kts | 266° |
| 2026-04-25 00:04 | 33.94186 | -118.41376 | 103 ft | 0 kts | 270° |
| 2026-04-25 00:04 | 33.94186 | -118.41394 | 102 ft | 1 kts | 265° |
| 2026-04-25 00:05 | 33.94185 | -118.41401 | 102 ft | 1 kts | 263° |
| 2026-04-25 00:05 | 33.94184 | -118.41411 | 103 ft | 2 kts | 263° |
| 2026-04-25 00:05 | 33.94183 | -118.41419 | 102 ft | 0 kts | 263° |